createdAt,value
2018-10-12T00:06:04.188Z,8.50
2018-10-12T00:16:05.451Z,8.30
2018-10-12T00:26:06.750Z,8.30
2018-10-12T00:36:08.022Z,8.20
2018-10-12T00:46:09.270Z,8.20
2018-10-12T00:56:10.511Z,8.00
2018-10-12T01:06:11.755Z,8.10
2018-10-12T01:16:13.753Z,7.90
2018-10-12T01:26:15.777Z,7.90
2018-10-12T01:36:17.810Z,7.90
2018-10-12T01:46:19.847Z,7.80
2018-10-12T01:56:21.114Z,7.90
2018-10-12T02:06:22.397Z,7.80
2018-10-12T02:16:23.660Z,7.60
2018-10-12T02:26:24.922Z,7.60
2018-10-12T02:36:26.258Z,7.50
2018-10-12T02:46:27.505Z,7.50
2018-10-12T02:56:28.751Z,7.40
2018-10-12T03:06:29.979Z,7.30
2018-10-12T03:16:31.256Z,7.20
2018-10-12T03:26:32.574Z,7.20
2018-10-12T03:36:33.862Z,7.30
2018-10-12T03:46:35.143Z,7.20
2018-10-12T03:56:37.234Z,7.00
2018-10-12T04:06:38.579Z,6.90
2018-10-12T04:16:39.861Z,7.20
2018-10-12T04:26:41.185Z,7.10
2018-10-12T04:36:42.460Z,7.20
2018-10-12T04:46:43.698Z,7.20
2018-10-12T04:56:44.951Z,7.00
2018-10-12T05:06:46.182Z,7.10
2018-10-12T05:16:47.439Z,7.10
2018-10-12T05:26:48.711Z,7.20
2018-10-12T05:36:49.973Z,7.00
2018-10-12T05:46:51.260Z,7.10
2018-10-12T05:56:52.551Z,7.30
2018-10-12T06:06:53.839Z,7.60
2018-10-12T06:16:55.119Z,8.00
2018-10-12T06:26:56.452Z,8.40
2018-10-12T06:36:57.684Z,9.10
2018-10-12T06:46:59.703Z,10.40
2018-10-12T06:57:00.938Z,10.40
2018-10-12T07:07:02.218Z,10.90
2018-10-12T07:17:03.482Z,11.60
2018-10-12T07:27:04.763Z,11.90
2018-10-12T07:37:06.177Z,12.60
2018-10-12T07:47:08.293Z,14.00
2018-10-12T07:57:09.647Z,14.00
2018-10-12T08:07:11.721Z,14.60
2018-10-12T08:17:13.083Z,14.80
2018-10-12T08:27:15.137Z,16.20
2018-10-12T08:37:16.445Z,16.20
2018-10-12T08:47:17.699Z,16.90
2018-10-12T08:57:18.963Z,18.40
2018-10-12T09:07:20.251Z,23.50
2018-10-12T09:17:21.567Z,25.10
2018-10-12T09:27:22.854Z,29.60
2018-10-12T09:37:24.135Z,27.80
2018-10-12T09:47:25.410Z,30.00
2018-10-12T09:57:26.709Z,25.60
2018-10-12T10:07:27.991Z,22.00
2018-10-12T10:17:29.256Z,21.20
2018-10-12T10:27:30.636Z,21.10
2018-10-12T10:37:31.934Z,21.50
2018-10-12T10:47:33.794Z,20.50
2018-10-12T10:57:36.910Z,20.30
2018-10-12T11:07:38.992Z,20.60
2018-10-12T11:17:43.585Z,20.60
2018-10-12T11:27:44.865Z,20.70
2018-10-12T11:37:46.155Z,20.40
2018-10-12T11:47:47.502Z,20.60
2018-10-12T11:57:48.800Z,20.80
2018-10-12T12:07:50.854Z,20.80
2018-10-12T12:17:52.121Z,20.80
2018-10-12T12:27:54.161Z,21.00
2018-10-12T12:37:56.194Z,20.70
2018-10-12T12:47:57.674Z,20.70
2018-10-12T12:57:59.602Z,20.60
2018-10-12T13:08:00.888Z,20.60
2018-10-12T13:18:02.400Z,20.60
2018-10-12T13:28:03.739Z,20.60
2018-10-12T13:38:05.174Z,20.60
2018-10-12T13:48:06.428Z,20.50
2018-10-12T13:58:07.803Z,20.30
2018-10-12T14:08:09.103Z,20.10
2018-10-12T14:18:10.446Z,20.10
2018-10-12T14:28:12.510Z,19.60
2018-10-12T14:38:13.882Z,19.60
2018-10-12T14:48:15.321Z,19.40
2018-10-12T14:58:18.140Z,19.00
2018-10-12T15:08:19.456Z,18.70
2018-10-12T15:18:20.912Z,18.60
2018-10-12T15:28:22.547Z,18.30
2018-10-12T15:38:23.971Z,17.90
2018-10-12T15:48:25.246Z,17.40
2018-10-12T15:58:26.606Z,17.00
2018-10-12T16:08:27.863Z,16.30
2018-10-12T16:18:29.150Z,15.90
2018-10-12T16:28:31.462Z,15.30
2018-10-12T16:38:32.746Z,15.00
2018-10-12T16:48:34.100Z,14.70
2018-10-12T16:58:35.342Z,14.30
2018-10-12T17:08:37.210Z,14.00
2018-10-12T17:18:38.665Z,13.80
2018-10-12T17:28:39.971Z,13.50
2018-10-12T17:38:41.247Z,13.30
2018-10-12T17:48:43.278Z,12.80
2018-10-12T17:58:44.604Z,12.80
2018-10-12T18:08:46.439Z,12.60
2018-10-12T18:18:48.360Z,12.40
2018-10-12T18:28:50.296Z,12.30
2018-10-12T18:38:52.223Z,12.10
2018-10-12T18:48:55.612Z,11.70
2018-10-12T18:58:57.538Z,11.00
2018-10-12T19:08:59.505Z,11.50
2018-10-12T19:19:00.864Z,11.30
2018-10-12T19:29:03.238Z,11.20
2018-10-12T19:39:04.538Z,11.20
2018-10-12T19:49:05.776Z,11.10
2018-10-12T19:59:07.825Z,10.80
2018-10-12T20:09:10.132Z,10.70
2018-10-12T20:19:11.800Z,10.70
2018-10-12T20:29:13.603Z,10.50
2018-10-12T20:39:15.029Z,10.60
2018-10-12T20:49:16.614Z,10.40
2018-10-12T20:59:17.997Z,10.20
2018-10-12T21:09:19.258Z,10.10
2018-10-12T21:19:20.790Z,10.10
2018-10-12T21:29:22.053Z,9.90
2018-10-12T21:39:23.314Z,9.70
2018-10-12T21:49:25.784Z,9.60
2018-10-12T21:59:27.346Z,9.60
2018-10-12T22:09:28.684Z,9.40
2018-10-12T22:19:29.954Z,9.40
2018-10-12T22:29:31.220Z,9.30
2018-10-12T22:39:32.470Z,9.20
2018-10-12T22:49:33.749Z,9.20
2018-10-12T22:59:35.083Z,9.10
2018-10-12T23:09:36.314Z,9.10
2018-10-12T23:19:38.327Z,8.90
2018-10-12T23:29:39.729Z,8.80
2018-10-12T23:39:40.970Z,8.90
2018-10-12T23:49:42.230Z,8.90
2018-10-12T23:59:43.550Z,8.70
